Time;durP1;ratioP1;P1;durP2;ratioP2;P2;SDS_P1;SDS_P2;PMS_P1;PMS_P2;Temp;Humidity;BMP_temperature;BMP_pressure;BME280_temperature;BME280_humidity;BME280_pressure;Samples;Min_cycle;Max_cycle;Signal;HPM_P1;HPM_P2
2021/08/27 16:09:21;;;;;;;0.50;0.30;;;;;;;15.60;74.54;100852.34;5019798;27;20799;-83
2021/08/27 16:11:55;;;;;;;0.25;0.25;;;;;;;15.93;74.05;100852.94;5042857;28;20058;-83
2021/08/27 16:14:23;;;;;;;0.40;0.30;;;;;;;16.10;74.70;100851.44;5029031;28;20058;-85
2021/08/27 16:16:52;;;;;;;1.23;0.40;;;;;;;16.19;73.89;100843.28;5012576;28;20056;-84
2021/08/27 16:19:21;;;;;;;0.40;0.30;;;;;;;16.44;70.64;100850.84;5032508;28;20064;-83
2021/08/27 16:21:55;;;;;;;0.25;0.20;;;;;;;16.43;71.64;100846.50;5011824;28;20064;-83
2021/08/27 16:24:25;;;;;;;0.20;0.20;;;;;;;16.51;72.01;100849.59;5013507;28;20054;-84
2021/08/27 16:26:55;;;;;;;0.25;0.25;;;;;;;16.42;70.98;100846.78;5015479;28;20052;-85
2021/08/27 16:29:25;;;;;;;0.30;0.20;;;;;;;16.25;72.12;100859.28;5012412;28;20425;-82
2021/08/27 16:31:58;;;;;;;0.30;0.30;;;;;;;16.06;72.30;100844.97;5008764;28;20092;-82
2021/08/27 16:34:33;;;;;;;1.05;0.30;;;;;;;16.09;72.83;100861.63;5012140;28;20058;-85
2021/08/27 16:37:03;;;;;;;0.20;0.20;;;;;;;16.29;72.13;100875.97;5010810;28;20057;-83
2021/08/27 16:39:37;;;;;;;0.88;0.30;;;;;;;15.94;73.03;100862.00;5011609;28;20053;-83
2021/08/27 16:42:05;;;;;;;0.60;0.30;;;;;;;15.80;73.82;100871.09;5010369;28;20065;-85
2021/08/27 16:44:34;;;;;;;0.30;0.20;;;;;;;16.02;73.38;100877.75;5011409;28;20050;-83
2021/08/27 16:47:02;;;;;;;0.20;0.20;;;;;;;15.85;74.27;100874.84;5013581;28;20045;-85
2021/08/27 16:49:35;;;;;;;0.25;0.20;;;;;;;16.08;73.61;100887.47;5012994;28;20054;-83
2021/08/27 16:52:07;;;;;;;0.88;0.30;;;;;;;15.94;75.57;100894.94;5012515;28;20668;-82
2021/08/27 16:54:37;;;;;;;1.65;0.30;;;;;;;15.91;75.28;100895.56;5014147;28;20068;-84
2021/08/27 16:57:10;;;;;;;0.30;0.30;;;;;;;15.62;75.96;100875.59;5009544;28;20061;-82
2021/08/27 16:59:43;;;;;;;0.47;0.22;;;;;;;15.71;75.31;100889.38;5005526;28;20526;-85
2021/08/27 17:02:18;;;;;;;0.20;0.20;;;;;;;15.63;76.22;100896.44;5011032;28;20061;-83
2021/08/27 17:04:52;;;;;;;0.30;0.30;;;;;;;15.70;76.83;100895.19;5015946;28;20049;-83
2021/08/27 17:07:25;;;;;;;0.20;0.20;;;;;;;15.60;76.01;100888.81;5014691;28;20417;-83
2021/08/27 17:09:55;;;;;;;0.30;0.30;;;;;;;15.45;76.68;100889.16;5017377;28;20053;-83
2021/08/27 17:12:23;;;;;;;1.10;0.30;;;;;;;15.39;76.97;100899.41;4975634;28;20070;-83
2021/08/27 17:14:58;;;;;;;0.57;0.30;;;;;;;15.34;76.26;100896.78;4992444;28;20543;-83
2021/08/27 17:17:36;;;;;;;0.70;0.25;;;;;;;15.19;77.01;100891.63;4989727;28;20069;-83
2021/08/27 17:20:11;;;;;;;0.20;0.20;;;;;;;15.21;77.45;100892.16;4980582;28;20058;-84
2021/08/27 17:22:45;;;;;;;0.20;0.20;;;;;;;15.20;77.74;100899.53;4983825;28;20046;-86
2021/08/27 17:25:15;;;;;;;0.32;0.20;;;;;;;15.09;77.44;100903.59;4982129;28;20054;-84
2021/08/27 17:27:44;;;;;;;2.45;1.73;;;;;;;15.12;78.12;100912.03;4981046;28;20050;-86
2021/08/27 17:30:17;;;;;;;0.20;0.20;;;;;;;15.17;74.13;100908.38;4983179;28;20050;-84
2021/08/27 17:32:50;;;;;;;0.30;0.30;;;;;;;15.07;74.59;100905.84;4976257;28;20062;-85
2021/08/27 17:35:22;;;;;;;0.28;0.28;;;;;;;14.98;74.51;100905.72;4972311;28;20069;-86
2021/08/27 17:37:51;;;;;;;1.20;0.22;;;;;;;14.98;74.79;100900.25;4977055;28;20062;-85
2021/08/27 17:40:29;;;;;;;0.43;0.30;;;;;;;14.92;75.03;100910.50;4976935;28;20869;-84
2021/08/27 17:43:03;;;;;;;0.20;0.20;;;;;;;14.94;74.95;100911.03;4979568;28;20054;-84
2021/08/27 17:45:33;;;;;;;0.30;0.30;;;;;;;14.85;76.57;100906.56;4977312;28;20062;-85
2021/08/27 17:48:02;;;;;;;0.20;0.20;;;;;;;14.96;76.09;100922.47;4977027;28;20054;-83
2021/08/27 17:50:35;;;;;;;0.30;0.20;;;;;;;14.74;76.04;100908.66;4993645;28;20057;-83
2021/08/27 17:53:11;;;;;;;0.20;0.20;;;;;;;14.60;77.60;100914.91;4973019;28;20059;-84
2021/08/27 17:55:46;;;;;;;0.30;0.30;;;;;;;14.46;79.45;100919.53;4978954;28;20038;-83
2021/08/27 17:58:19;;;;;;;0.47;0.30;;;;;;;14.76;77.92;100923.69;4976034;28;20054;-85
2021/08/27 18:00:54;;;;;;;0.57;0.43;;;;;;;14.54;78.96;100918.84;4980407;28;20058;-85
2021/08/27 18:03:27;;;;;;;0.38;0.38;;;;;;;14.42;79.89;100924.78;4977287;28;20058;-86
2021/08/27 18:06:01;;;;;;;0.40;0.40;;;;;;;14.32;79.73;100916.78;4979773;28;20058;-83
2021/08/27 18:08:34;;;;;;;1.40;0.60;;;;;;;14.22;80.33;100925.13;4973898;28;20104;-84
2021/08/27 18:11:11;;;;;;;1.40;0.88;;;;;;;14.19;80.16;100918.31;4959103;28;21403;-85
2021/08/27 18:13:55;;;;;;;1.17;0.90;;;;;;;14.11;81.53;100922.56;4979134;28;20042;-84
2021/08/27 18:16:28;;;;;;;0.93;0.82;;;;;;;14.06;82.48;100935.53;4983066;28;20061;-86
2021/08/27 18:18:57;;;;;;;0.40;0.40;;;;;;;13.98;82.93;100941.66;4972314;28;20756;-83
2021/08/27 18:21:34;;;;;;;0.40;0.40;;;;;;;14.01;83.14;100943.81;4979710;28;20494;-84
2021/08/27 18:24:10;;;;;;;0.30;0.30;;;;;;;13.84;83.33;100941.59;4977813;28;20062;-83
2021/08/27 18:26:43;;;;;;;0.30;0.30;;;;;;;13.82;83.39;100947.34;4971601;28;20069;-84
2021/08/27 18:29:20;;;;;;;0.90;0.40;;;;;;;13.84;84.08;100950.59;4974135;28;20055;-82
2021/08/27 18:31:48;;;;;;;0.20;0.20;;;;;;;13.82;84.16;100944.59;4974479;28;20069;-82
2021/08/27 18:34:28;;;;;;;0.32;0.30;;;;;;;13.71;84.14;100956.78;4980609;28;20917;-84
2021/08/27 18:37:17;;;;;;;0.30;0.30;;;;;;;13.63;84.56;100958.28;4985991;28;20708;-83
2021/08/27 18:39:51;;;;;;;0.40;0.30;;;;;;;13.58;85.08;100953.66;4978646;28;20054;-84
2021/08/27 18:42:29;;;;;;;0.90;0.40;;;;;;;13.51;85.31;100963.34;4980046;28;20062;-85
2021/08/27 18:45:08;;;;;;;0.45;0.30;;;;;;;13.54;84.25;100977.25;4983206;28;20054;-86
2021/08/27 18:47:38;;;;;;;0.52;0.40;;;;;;;13.54;85.45;100976.44;4982693;28;20053;-84
2021/08/27 18:50:13;;;;;;;0.30;0.30;;;;;;;13.47;84.65;100973.25;4982653;28;20517;-85
2021/08/27 18:52:42;;;;;;;0.50;0.30;;;;;;;13.38;84.35;100973.91;4981193;28;20807;-87
2021/08/27 18:55:11;;;;;;;0.20;0.20;;;;;;;13.36;84.01;100973.34;4979314;28;20124;-81
2021/08/27 18:57:49;;;;;;;0.32;0.30;;;;;;;13.33;84.61;100981.31;4977991;28;20053;-83
2021/08/27 19:00:37;;;;;;;0.30;0.30;;;;;;;13.37;84.51;100980.47;4980580;28;20039;-83
2021/08/27 19:03:05;;;;;;;0.43;0.28;;;;;;;13.33;82.97;100984.84;4977732;28;20042;-83
2021/08/27 19:05:40;;;;;;;0.65;0.30;;;;;;;13.32;84.62;100987.88;4981775;28;20050;-83
2021/08/27 19:08:14;;;;;;;0.40;0.40;;;;;;;13.27;84.13;100991.47;4983381;28;20054;-87
2021/08/27 19:10:43;;;;;;;0.50;0.50;;;;;;;13.13;83.58;100976.88;4987127;28;20249;-82
2021/08/27 19:13:16;;;;;;;0.52;0.52;;;;;;;13.16;84.03;100985.31;4967893;28;20061;-86
2021/08/27 19:15:51;;;;;;;0.52;0.50;;;;;;;13.17;83.61;100986.13;4986361;28;20045;-86
2021/08/27 19:18:28;;;;;;;0.85;0.70;;;;;;;13.10;84.36;100990.03;4982388;28;20058;-82
2021/08/27 19:21:03;;;;;;;1.23;0.60;;;;;;;13.12;85.01;100994.38;4982652;28;20065;-82
2021/08/27 19:24:00;;;;;;;0.40;0.40;;;;;;;13.04;84.71;100995.81;4980733;28;20042;-84
2021/08/27 19:26:37;;;;;;;0.40;0.40;;;;;;;13.04;84.74;101002.09;4988001;28;20046;-88
2021/08/27 19:29:06;;;;;;;0.40;0.40;;;;;;;12.96;85.46;100996.44;4988976;28;20058;-82
2021/08/27 19:31:35;;;;;;;0.50;0.50;;;;;;;12.98;85.89;100996.97;4984611;28;20049;-84
2021/08/27 19:34:11;;;;;;;0.40;0.40;;;;;;;12.95;85.54;101012.00;4976271;28;20073;-82
2021/08/27 19:36:44;;;;;;;0.50;0.50;;;;;;;12.88;86.41;100990.50;4978857;28;20058;-81
2021/08/27 19:39:15;;;;;;;0.47;0.47;;;;;;;12.87;86.34;100996.25;4980505;28;20058;-82
2021/08/27 19:41:48;;;;;;;0.47;0.40;;;;;;;12.87;87.27;100996.25;4982209;28;20062;-83
2021/08/27 19:44:30;;;;;;;0.50;0.50;;;;;;;12.80;87.26;100982.94;4983068;28;20061;-84
2021/08/27 19:46:58;;;;;;;0.40;0.40;;;;;;;12.95;87.41;101012.00;4979020;28;20054;-83
2021/08/27 19:49:26;;;;;;;0.30;0.30;;;;;;;12.91;87.71;100998.13;4978566;28;20077;-81
2021/08/27 19:52:00;;;;;;;1.25;0.40;;;;;;;12.97;87.38;100998.06;4978125;28;20054;-83
2021/08/27 19:54:31;;;;;;;0.63;0.50;;;;;;;13.00;87.70;101003.78;4980023;28;20057;-82
2021/08/27 19:57:05;;;;;;;0.52;0.45;;;;;;;13.04;87.18;101010.28;4972890;28;20058;-83
2021/08/27 19:59:35;;;;;;;0.90;0.50;;;;;;;13.03;87.81;101010.59;4971915;28;20053;-83
2021/08/27 20:02:03;;;;;;;0.40;0.40;;;;;;;13.03;87.43;101005.91;4970485;28;20050;-84
2021/08/27 20:04:38;;;;;;;0.30;0.30;;;;;;;12.98;87.50;101000.53;4973721;28;20050;-82
2021/08/27 20:07:37;;;;;;;0.50;0.40;;;;;;;13.03;87.95;101007.84;4973693;28;20058;-84
2021/08/27 20:10:07;;;;;;;0.30;0.30;;;;;;;12.98;88.45;101006.00;4970979;28;20607;-83
2021/08/27 20:12:40;;;;;;;0.40;0.40;;;;;;;13.06;88.04;101005.38;4949694;28;20050;-82
2021/08/27 20:15:11;;;;;;;0.40;0.30;;;;;;;13.04;87.66;101009.50;4975127;28;20050;-84
2021/08/27 20:17:44;;;;;;;0.38;0.38;;;;;;;13.04;88.21;101006.75;4971404;28;20050;-83
2021/08/27 20:20:17;;;;;;;0.57;0.30;;;;;;;13.04;88.13;101006.75;4974082;28;20513;-83
2021/08/27 20:22:49;;;;;;;1.23;0.40;;;;;;;13.04;89.42;101009.50;4973547;28;20055;-84
2021/08/27 20:25:22;;;;;;;0.30;0.30;;;;;;;13.01;89.96;101007.31;4978848;28;20077;-84
2021/08/27 20:27:50;;;;;;;1.48;0.30;;;;;;;12.99;90.14;101013.06;4970652;28;20902;-83
2021/08/27 20:30:21;;;;;;;0.43;0.28;;;;;;;12.95;89.04;101000.28;4972604;28;20061;-83
2021/08/27 20:32:54;;;;;;;0.30;0.30;;;;;;;12.96;88.78;101015.56;4971046;28;20517;-84
2021/08/27 20:35:55;;;;;;;0.30;0.30;;;;;;;12.91;89.11;101009.06;4980454;28;20097;-86
2021/08/27 20:38:28;;;;;;;1.13;0.40;;;;;;;12.93;89.40;100997.84;4973644;28;20062;-83
2021/08/27 20:41:02;;;;;;;0.30;0.30;;;;;;;12.90;89.06;101004.69;4978067;28;20058;-85
2021/08/27 20:43:35;;;;;;;0.35;0.35;;;;;;;12.88;88.86;100995.16;4972964;28;20066;-84
2021/08/27 20:46:05;;;;;;;0.82;0.30;;;;;;;12.89;89.68;101010.44;4975725;28;20298;-82
2021/08/27 20:48:39;;;;;;;0.77;0.47;;;;;;;12.88;89.80;101004.16;4971411;28;20073;-83
2021/08/27 20:51:12;;;;;;;0.38;0.32;;;;;;;12.85;90.05;101001.19;4974600;28;20050;-83
2021/08/27 20:53:47;;;;;;;0.30;0.30;;;;;;;12.87;90.11;101009.91;4989370;28;20050;-83
2021/08/27 20:56:17;;;;;;;0.40;0.30;;;;;;;12.92;90.03;101015.31;4980020;28;20057;-83
2021/08/27 20:58:53;;;;;;;0.20;0.20;;;;;;;12.89;90.85;101003.06;4975103;28;20058;-82
2021/08/27 21:01:27;;;;;;;0.80;0.38;;;;;;;12.93;90.83;101012.31;4974886;28;20054;-84
2021/08/27 21:04:01;;;;;;;0.47;0.30;;;;;;;12.90;91.00;101010.16;4977923;28;20058;-84
2021/08/27 21:06:30;;;;;;;0.73;0.30;;;;;;;12.90;92.63;101006.63;4977905;28;20089;-84
2021/08/27 21:09:03;;;;;;;0.30;0.30;;;;;;;12.87;91.76;101005.28;4974802;28;20071;-82
2021/08/27 21:11:37;;;;;;;0.22;0.22;;;;;;;12.86;93.15;101009.09;4947506;28;20058;-82
2021/08/27 21:14:10;;;;;;;0.30;0.30;;;;;;;12.84;93.10;101002.28;4971060;28;20798;-82
2021/08/27 21:16:44;;;;;;;0.40;0.40;;;;;;;12.82;94.14;100997.13;4973831;28;20065;-83
2021/08/27 21:19:18;;;;;;;0.55;0.40;;;;;;;12.78;94.64;101006.97;4974276;28;20073;-80
2021/08/27 21:21:47;;;;;;;0.30;0.30;;;;;;;12.74;94.77;100992.28;4979521;28;20394;-82
2021/08/27 21:24:23;;;;;;;0.75;0.40;;;;;;;12.78;96.05;100997.97;4977092;28;20046;-83
2021/08/27 21:26:56;;;;;;;0.95;0.40;;;;;;;12.75;95.31;100997.44;4988737;28;20053;-85
2021/08/27 21:29:29;;;;;;;0.38;0.38;;;;;;;12.75;96.09;101002.91;4987572;28;20054;-84
2021/08/27 21:32:04;;;;;;;0.38;0.38;;;;;;;12.71;96.61;101001.84;4989469;28;20462;-85
2021/08/27 21:34:37;;;;;;;0.43;0.43;;;;;;;12.72;95.97;101003.47;4987626;28;20378;-84
2021/08/27 21:37:13;;;;;;;0.57;0.40;;;;;;;12.75;96.57;101007.56;4991935;28;20058;-84
2021/08/27 21:39:41;;;;;;;0.63;0.40;;;;;;;12.74;97.18;101011.38;4989511;28;20079;-85
2021/08/27 21:42:09;;;;;;;0.40;0.40;;;;;;;12.75;96.85;101004.84;4986938;28;20055;-83
2021/08/27 21:44:43;;;;;;;0.73;0.40;;;;;;;12.75;96.94;101007.56;4987901;28;20061;-84
2021/08/27 21:47:18;;;;;;;0.63;0.40;;;;;;;12.75;98.28;101005.63;4989240;28;20058;-84
2021/08/27 21:49:51;;;;;;;0.47;0.40;;;;;;;12.74;97.63;101011.38;4983226;28;20057;-84
2021/08/27 21:52:25;;;;;;;0.73;0.40;;;;;;;12.76;99.03;101007.28;4975160;28;20039;-84
2021/08/27 21:54:58;;;;;;;0.40;0.40;;;;;;;12.74;98.56;101006.72;4981361;28;20043;-84
2021/08/27 21:57:31;;;;;;;0.40;0.40;;;;;;;12.67;99.12;101016.38;4983843;28;20384;-84
2021/08/27 22:00:08;;;;;;;0.40;0.40;;;;;;;12.63;100.00;101007.13;4986249;28;20051;-83
2021/08/27 22:02:38;;;;;;;0.65;0.45;;;;;;;12.58;100.00;101016.97;4986260;28;20564;-84
2021/08/27 22:05:11;;;;;;;0.60;0.40;;;;;;;12.53;100.00;101008.81;4985965;28;20054;-84
2021/08/27 22:07:45;;;;;;;0.40;0.40;;;;;;;12.57;100.00;101012.59;4990170;28;20042;-83
2021/08/27 22:10:18;;;;;;;0.60;0.40;;;;;;;12.53;100.00;101016.19;4983257;28;20061;-84
2021/08/27 22:12:51;;;;;;;0.50;0.30;;;;;;;12.56;100.00;101015.63;4979143;28;20611;-84
2021/08/27 22:15:25;;;;;;;0.50;0.40;;;;;;;12.53;100.00;101014.28;4986713;28;20068;-84
2021/08/27 22:18:00;;;;;;;0.30;0.30;;;;;;;12.50;100.00;101019.50;4988485;28;20057;-83
2021/08/27 22:20:29;;;;;;;0.40;0.40;;;;;;;12.48;100.00;101016.25;4992045;28;20423;-84
2021/08/27 22:23:02;;;;;;;0.50;0.50;;;;;;;12.48;100.00;101021.69;4975487;28;20047;-83
2021/08/27 22:25:35;;;;;;;0.50;0.50;;;;;;;12.50;100.00;101022.25;4976621;28;20046;-83
2021/08/27 22:28:11;;;;;;;0.40;0.40;;;;;;;12.46;100.00;101015.72;4988871;28;20080;-83
2021/08/27 22:30:44;;;;;;;0.77;0.50;;;;;;;12.47;100.00;101011.88;4986919;28;20046;-82
2021/08/27 22:33:21;;;;;;;1.30;0.50;;;;;;;12.44;100.00;101017.91;4985513;28;20205;-82
2021/08/27 22:35:54;;;;;;;1.05;0.60;;;;;;;12.41;100.00;101028.31;4992368;28;20050;-82
2021/08/27 22:38:28;;;;;;;0.40;0.40;;;;;;;12.42;100.00;101032.63;4986554;28;20069;-82
2021/08/27 22:40:56;;;;;;;0.50;0.50;;;;;;;12.38;100.00;101025.31;4981248;28;20047;-82
2021/08/27 22:43:29;;;;;;;0.80;0.40;;;;;;;12.40;100.00;101029.41;4989960;28;20422;-83
2021/08/27 22:46:02;;;;;;;0.40;0.40;;;;;;;12.40;100.00;101025.84;4986121;28;20444;-83
2021/08/27 22:48:37;;;;;;;0.65;0.60;;;;;;;12.40;100.00;101029.41;4993098;28;20383;-83
2021/08/27 22:51:11;;;;;;;0.50;0.50;;;;;;;12.37;100.00;101024.50;4991017;28;20042;-83
2021/08/27 22:53:44;;;;;;;1.20;0.50;;;;;;;12.42;100.00;101029.09;4992073;28;20042;-83
2021/08/27 22:56:12;;;;;;;0.52;0.52;;;;;;;12.49;100.00;101035.06;4992096;28;20058;-83
2021/08/27 22:58:45;;;;;;;1.10;0.50;;;;;;;12.48;100.00;101032.63;4989945;28;20050;-83
2021/08/27 23:01:13;;;;;;;0.70;0.50;;;;;;;12.48;100.00;101033.41;4979199;28;20066;-83
2021/08/27 23:03:48;;;;;;;0.82;0.60;;;;;;;12.51;100.00;101026.56;4988474;28;20061;-83
2021/08/27 23:06:21;;;;;;;0.50;0.50;;;;;;;12.52;100.00;101025.50;4983552;28;20475;-83
2021/08/27 23:08:49;;;;;;;0.50;0.50;;;;;;;12.50;100.00;101031.22;4982603;28;20050;-83
2021/08/27 23:11:23;;;;;;;0.85;0.50;;;;;;;12.51;100.00;101034.78;4981048;28;20054;-83
2021/08/27 23:13:57;;;;;;;0.50;0.50;;;;;;;12.52;100.00;101036.41;4979067;28;20517;-84
2021/08/27 23:16:30;;;;;;;0.50;0.50;;;;;;;12.52;100.00;101031.75;4991240;28;20043;-84
2021/08/27 23:19:06;;;;;;;1.48;0.50;;;;;;;12.54;100.00;101028.72;4981780;28;20053;-83
2021/08/27 23:21:39;;;;;;;0.88;0.57;;;;;;;12.53;100.00;101024.41;4987449;28;20077;-83
2021/08/27 23:24:12;;;;;;;1.08;0.60;;;;;;;12.49;100.00;101031.53;4973938;28;20045;-83
2021/08/27 23:26:45;;;;;;;0.60;0.60;;;;;;;12.49;100.00;101031.53;4982862;28;20042;-83
2021/08/27 23:29:18;;;;;;;1.90;0.60;;;;;;;12.52;100.00;101036.41;5002983;28;20050;-83
2021/08/27 23:31:52;;;;;;;0.65;0.60;;;;;;;12.51;100.00;101032.88;4985151;28;20058;-84
2021/08/27 23:34:26;;;;;;;1.35;0.60;;;;;;;12.51;100.00;101034.78;4984041;28;20057;-84
2021/08/27 23:36:59;;;;;;;2.85;0.57;;;;;;;12.49;100.00;101037.78;4987060;28;20062;-82
2021/08/27 23:39:32;;;;;;;0.60;0.50;;;;;;;12.49;100.00;101035.06;4980835;28;20046;-84
2021/08/27 23:42:06;;;;;;;0.90;0.65;;;;;;;12.48;100.00;101036.16;4985886;28;20057;-84
2021/08/27 23:44:39;;;;;;;0.60;0.60;;;;;;;12.48;100.00;101038.88;4978817;28;20047;-84
2021/08/27 23:47:12;;;;;;;0.60;0.60;;;;;;;12.46;100.00;101037.56;4985866;28;20375;-85
2021/08/27 23:49:47;;;;;;;0.80;0.60;;;;;;;12.40;100.00;101040.31;4988005;28;20053;-84
2021/08/27 23:52:22;;;;;;;1.25;0.60;;;;;;;12.47;100.00;101045.47;4981722;28;20050;-86
2021/08/27 23:54:55;;;;;;;1.08;0.60;;;;;;;12.47;100.00;101041.91;4985740;28;20069;-85
2021/08/27 23:57:28;;;;;;;0.60;0.60;;;;;;;12.45;100.00;101035.91;4987549;28;20043;-83
2021/08/27 23:59:59;;;;;;;1.50;0.60;;;;;;;12.48;100.00;101043.53;4988687;28;20053;-84
